Carrboro, North Carolina
Current Conditions -  °F | °C
As of 2:56 AM on Tuesday 27 Jan 2015 (Local Time) from KIGX Reporting Station
Overcast Overcast  
Wind Chill: 31°   Ceiling: 3900
Heat Index: 35°   Visibility: 10mi
Dew Point: 28°   Wind: 5mph
Humidity: 76%   Direction: 320°NW
Pressure: 29.73"   Gusts: NA
Location:  35.91°N, 79.08°W
Report Text: KIGX 270756Z AUTO 32004KT 10SM OVC039 02/M02 A2973 RMK AO2 SLP067 T00171022
Loading
Personal Weather Stations






























Interactive Weather Map New forecast layout! Learn more

10-Day Weather Forecast

Advertisements
Track Severe Weather on mobile